ADDS METAR Data INFO
IDs: Format: Raw Decoded Include TAF

Data at: 0152 UTC 21 Apr 2018

KPYX 210135Z AUTO 06007KT 10SM OVC050 11/06 A3002 RMK AO2 T01140060
KPYX 210115Z AUTO 06007KT 10SM OVC048 11/06 A2998 RMK AO2 T01130058
KPYX 210055Z AUTO 08007KT 10SM OVC046 12/06 A2998 RMK AO2 T01150059
KPYX 210035Z AUTO 10009KT 10SM OVC046 12/06 A2996 RMK AO2 T01150060
KPYX 210015Z AUTO 10009KT 10SM OVC048 12/06 A2995 RMK AO2 T01200056
KPYX 202355Z AUTO 12011KT 10SM OVC048 12/05 A2996 RMK AO2 60001 T01230050 10154 20123
KPYX 202335Z AUTO 13013KT 10SM OVC050 13/04 A2996 RMK AO2 T01290043
KPYX 202315Z AUTO 14012KT 10SM OVC050 13/04 A2997 RMK AO2 T01330036
KPYX 202255Z AUTO 14010G16KT 10SM OVC048 13/04 A2997 RMK AO2 T01340036
KPYX 202235Z AUTO 14016G25KT 10SM OVC048 13/04 A2997 RMK AO2 T01320035
KPYX 202215Z AUTO 15020G30KT 10SM OVC048 14/02 A2996 RMK AO2 T01400024
KPYX 202155Z AUTO 14026G30KT 10SM OVC050 15/02 A2995 RMK AO2 T01450023
KPYX 202135Z AUTO 14024G29KT 10SM OVC050 15/02 A2995 RMK AO2 T01500021
KPYX 202115Z AUTO 14022G31KT 10SM OVC050 15/03 A2997 RMK AO2 T01460026
KPYX 202055Z AUTO 15023G30KT 10SM OVC050 14/03 A2998 RMK AO2 P0001 60001 T01410033
KPYX 202035Z AUTO 14020G26KT 10SM OVC060 13/05 A2998 RMK AO2 P0001 T01340048
KPYX 202015Z AUTO 15024G31KT 5SM OVC060 13/04 A3000 RMK AO2 T01330039
KPYX 201955Z AUTO 14025G31KT 10SM OVC060 15/00 A3001 RMK AO2 T01510002
KPYX 201935Z AUTO 14023G34KT 10SM OVC060 15/00 A3002 RMK AO2 T01460001
KPYX 201915Z AUTO 14024G29KT 10SM OVC060 15/00 A3003 RMK AO2 T01450004
KPYX 201855Z AUTO 14023G33KT 10SM BKN060 OVC075 15/00 A3003 RMK AO2 T01480000
KPYX 201835Z AUTO 14023G30KT 10SM OVC060 15/01 A3005 RMK AO2 T01500005
KPYX 201815Z AUTO 15025G29KT 10SM OVC060 15/00 A3007 RMK AO2 T01450004
KPYX 201755Z AUTO 15027KT 10SM OVC060 14/01 A3007 RMK AO2 T01420005 10142 20076
KPYX 201735Z AUTO 14021G29KT 10SM OVC060 14/00 A3009 RMK AO2 T01350004
KPYX 201715Z AUTO 14022G31KT 10SM OVC060 13/00 A3010 RMK AO2 T01300002
KPYX 201655Z AUTO 14024G29KT 10SM OVC070 13/00 A3011 RMK AO2 T01290002
KPYX 201635Z AUTO 14022G28KT 10SM OVC070 13/00 A3013 RMK AO2 T01250003
KPYX 201615Z AUTO 15021G26KT 10SM BKN080 OVC085 12/01 A3013 RMK AO2 T01220010
KPYX 201555Z AUTO 15021G27KT 10SM OVC075 12/01 A3014 RMK AO2 T01150009
KPYX 201535Z AUTO 15019G24KT 10SM BKN075 OVC085 11/01 A3015 RMK AO2 T01100008
KPYX 201515Z AUTO 14018G25KT 10SM SCT065 OVC085 10/01 A3015 RMK AO2 T01030009
KPYX 201455Z AUTO 14019G24KT 10SM SCT065 OVC085 10/01 A3017 RMK AO2 T01000010
KPYX 201435Z AUTO 14017G24KT 10SM SCT065 OVC085 10/01 A3016 RMK AO2 T00990010
KPYX 201415Z AUTO 14019G25KT 10SM SCT065 OVC085 09/01 A3017 RMK AO2 T00940012
KPYX 201355Z AUTO 15018G24KT 10SM OVC085 09/01 A3017 RMK AO2 T00870010
KPYX 201335Z AUTO 14019G23KT 10SM SCT070 OVC085 09/01 A3016 RMK AO2 T00850010
KPYX 201315Z AUTO 15017KT 10SM SCT070 OVC085 08/01 A3017 RMK AO2 T00840010
KPYX 201255Z AUTO 14018G22KT 10SM OVC085 08/01 A3016 RMK AO2 T00830009
KPYX 201235Z AUTO 14020G23KT 10SM OVC085 08/01 A3016 RMK AO2 T00820007
KPYX 201215Z AUTO 14016KT 10SM OVC085 08/00 A3016 RMK AO2 T00780004
KPYX 201155Z AUTO 13017KT 10SM OVC085 08/00 A3016 RMK AO2 T00760002 10100 20070
KPYX 201135Z AUTO 13018G22KT 10SM BKN085 08/00 A3016 RMK AO2 T00750001
KPYX 201115Z AUTO 13016G20KT 10SM SCT085 07/00 A3016 RMK AO2 T00720000
KPYX 201055Z AUTO 13015G19KT 10SM SCT085 07/00 A3017 RMK AO2 T00701002
KPYX 201035Z AUTO 13014KT 10SM BKN085 07/00 A3018 RMK AO2 T00721002
KPYX 201015Z AUTO 13013G17KT 10SM CLR 07/00 A3018 RMK AO2 T00701005
KPYX 200955Z AUTO 13013KT 10SM CLR 07/M01 A3018 RMK AO2 T00701006
KPYX 200935Z AUTO 13012KT 10SM CLR 07/M01 A3018 RMK AO2 T00731006
KPYX 200915Z AUTO 13013KT 10SM CLR 08/M01 A3019 RMK AO2 T00771006
KPYX 200855Z AUTO 12014KT 10SM CLR 08/M01 A3019 RMK AO2 T00801008
KPYX 200835Z AUTO 13013KT 10SM CLR 08/M01 A3020 RMK AO2 T00831011
KPYX 200815Z AUTO 13012KT 10SM SCT075 09/M02 A3020 RMK AO2 T00851017
KPYX 200755Z AUTO 13011KT 10SM BKN075 09/M02 A3021 RMK AO2 T00901016
KPYX 200735Z AUTO 13011KT 10SM SCT075 09/M02 A3021 RMK AO2 T00911017
KPYX 200715Z AUTO 13012KT 10SM SCT075 09/M02 A3022 RMK AO2 T00941020
KPYX 200655Z AUTO 13011KT 10SM CLR 10/M02 A3022 RMK AO2 T00981020
KPYX 200635Z AUTO 13010KT 10SM CLR 10/M02 A3022 RMK AO2 T00951020
KPYX 200615Z AUTO 12010KT 10SM CLR 10/M02 A3021 RMK AO2 T00991020
KPYX 200555Z AUTO 13012KT 10SM CLR 10/M02 A3021 RMK AO2 T00991021 10197 20098 402100000
KPYX 200535Z AUTO 12011KT 10SM CLR 10/M02 A3021 RMK AO2 T01001022
KPYX 200515Z AUTO 13009KT 10SM CLR 11/M02 A3022 RMK AO2 T01051025
KPYX 200455Z AUTO 13012KT 10SM CLR 11/M02 A3021 RMK AO2 T01131025
KPYX 200435Z AUTO 13012KT 10SM CLR 12/M03 A3022 RMK AO2 T01171028
KPYX 200415Z AUTO 14010KT 10SM CLR 12/M03 A3024 RMK AO2 T01161030
KPYX 200355Z AUTO 14010KT 10SM CLR 12/M03 A3024 RMK AO2 T01171034
KPYX 200335Z AUTO 14010KT 10SM CLR 12/M04 A3023 RMK AO2 T01171037
KPYX 200315Z AUTO 13009KT 10SM CLR 12/M04 A3022 RMK AO2 T01171040
KPYX 200255Z AUTO 13009KT 10SM CLR 12/M04 A3022 RMK AO2 T01201042
KPYX 200235Z AUTO 13008KT 10SM CLR 13/M04 A3022 RMK AO2 T01311041
KPYX 200215Z AUTO 13009KT 10SM CLR 14/M04 A3022 RMK AO2 T01431041
KPYX 200155Z AUTO 14010KT 10SM CLR 15/M04 A3021 RMK AO2 T01501040
KPYX 200135Z AUTO 14011KT 10SM CLR 16/M04 A3021 RMK AO2 T01601039
KPYX 200115Z AUTO 14012G18KT 10SM CLR 17/M04 A3020 RMK AO2 T01701038
KPYX 200055Z AUTO 13017G21KT 10SM CLR 18/M04 A3019 RMK AO2 T01801039
KPYX 200035Z AUTO 13017G22KT 10SM CLR 19/M04 A3020 RMK AO2 T01881037
KPYX 200015Z AUTO 14015G21KT 10SM CLR 19/M04 A3020 RMK AO2 T01931038
KPYX 192355Z AUTO 14016G23KT 10SM CLR 20/M04 A3021 RMK AO2 T01961038 10210 20171
KPYX 192335Z AUTO 13014G20KT 10SM CLR 20/M04 A3021 RMK AO2 T02021040
KPYX 192315Z AUTO 13014G21KT 10SM CLR 21/M04 A3021 RMK AO2 T02061041
KPYX 192255Z AUTO 14015G19KT 10SM CLR 20/M04 A3022 RMK AO2 T02011041
KPYX 192235Z AUTO 14014G19KT 10SM CLR 21/M04 A3022 RMK AO2 T02091044
KPYX 192215Z AUTO 14011KT 10SM CLR 20/M05 A3024 RMK AO2 T02031046
KPYX 192155Z AUTO 13014G18KT 10SM CLR 20/M05 A3025 RMK AO2 T01981048
KPYX 192135Z AUTO 15012G21KT 10SM CLR 20/M05 A3026 RMK AO2 T02001051
KPYX 192115Z AUTO 16012G18KT 10SM CLR 20/M05 A3027 RMK AO2 T02001053
KPYX 192055Z AUTO 19013G17KT 10SM CLR 21/M05 A3029 RMK AO2 T02061046
KPYX 192035Z AUTO 16011G17KT 10SM CLR 20/M05 A3030 RMK AO2 T02031046
KPYX 192015Z AUTO 14013G18KT 10SM CLR 21/M03 A3031 RMK AO2 T02071033
KPYX 191955Z AUTO 12008G14KT 10SM CLR 19/M04 A3032 RMK AO2 T01901040
KPYX 191935Z AUTO 17005G20KT 10SM CLR 19/M04 A3034 RMK AO2 T01881043
KPYX 191915Z AUTO 17008KT 10SM CLR 19/M04 A3034 RMK AO2 T01911036
KPYX 191855Z AUTO 13007G16KT 10SM CLR 18/M03 A3036 RMK AO2 T01841034
KPYX 191835Z AUTO 16009KT 10SM CLR 18/M03 A3037 RMK AO2 T01841035
KPYX 191815Z AUTO 15007KT 10SM CLR 17/M04 A3038 RMK AO2 T01721036
KPYX 191755Z AUTO 17008KT 10SM CLR 17/M03 A3039 RMK AO2 T01701029 10170 20000
KPYX 191735Z AUTO 16008KT 10SM CLR 16/M03 A3040 RMK AO2 T01641029
KPYX 191715Z AUTO 15005KT 10SM CLR 16/M03 A3041 RMK AO2 T01551030
KPYX 191655Z AUTO 14005KT 10SM CLR 16/M03 A3041 RMK AO2 T01561026
KPYX 191635Z AUTO 14007KT 10SM CLR 15/M03 A3041 RMK AO2 T01491026
KPYX 191615Z AUTO 14009KT 10SM CLR 15/M03 A3042 RMK AO2 T01471026
KPYX 191555Z AUTO 12006KT 10SM CLR 14/M03 A3042 RMK AO2 T01371030
KPYX 191535Z AUTO 13005KT 10SM CLR 13/M03 A3042 RMK AO2 T01311029
KPYX 191515Z AUTO 13005KT 10SM CLR 13/M03 A3042 RMK AO2 T01261029
KPYX 191455Z AUTO 14006KT 10SM CLR 12/M03 A3041 RMK AO2 T01211026
KPYX 191435Z AUTO 12007KT 10SM CLR 11/M03 A3040 RMK AO2 T01101028
KPYX 191415Z AUTO 13006KT 10SM CLR 10/M03 A3039 RMK AO2 T00991026
KPYX 191355Z AUTO 12005KT 10SM CLR 09/M02 A3038 RMK AO2 T00851024